createdAt,value
2023-02-08T17:05:16.985Z,2.50
2023-02-08T17:06:16.948Z,2.90
2023-02-08T17:07:16.966Z,2.90
2023-02-08T17:08:16.937Z,3.10
2023-02-08T17:09:16.930Z,3.10
2023-02-08T17:10:16.904Z,3.10
2023-02-08T17:11:16.885Z,2.90
2023-02-08T17:12:22.517Z,3.40
2023-02-08T17:13:20.827Z,2.80
2023-02-08T17:14:16.894Z,3.30
2023-02-08T17:15:16.867Z,2.80
2023-02-08T17:16:16.848Z,2.90
2023-02-08T17:17:16.815Z,2.70
2023-02-08T17:18:16.812Z,3.10
2023-02-08T17:19:16.779Z,2.90
2023-02-08T17:20:16.793Z,2.80
2023-02-08T17:21:16.772Z,3.00
2023-02-08T17:22:16.751Z,3.40
2023-02-08T17:23:16.750Z,2.80
2023-02-08T17:24:16.734Z,3.10
2023-02-08T17:25:16.721Z,2.60
2023-02-08T17:26:16.723Z,3.00
2023-02-08T17:27:16.720Z,2.90
2023-02-08T17:28:16.713Z,3.00
2023-02-08T17:29:16.651Z,3.20
2023-02-08T17:30:16.652Z,2.80
2023-02-08T17:31:16.705Z,3.80
2023-02-08T17:32:16.634Z,3.20
2023-02-08T17:33:16.600Z,3.90
2023-02-08T17:34:16.591Z,3.90
2023-02-08T17:35:16.591Z,4.10
2023-02-08T17:36:16.567Z,4.20
2023-02-08T17:37:16.559Z,3.40
2023-02-08T17:38:16.527Z,3.60
2023-02-08T17:39:16.560Z,4.00
2023-02-08T17:40:16.529Z,3.70
2023-02-08T17:41:16.518Z,3.80
2023-02-08T17:42:16.519Z,4.20
2023-02-08T17:43:16.474Z,5.80
2023-02-08T17:44:16.477Z,5.60
2023-02-08T17:45:16.467Z,5.10
2023-02-08T17:46:16.504Z,5.00
2023-02-08T17:47:16.454Z,4.90
2023-02-08T17:48:16.400Z,4.50
2023-02-08T17:49:16.406Z,4.50
2023-02-08T17:50:16.365Z,5.20
2023-02-08T17:51:16.426Z,4.60
2023-02-08T17:52:16.364Z,4.30
2023-02-08T17:53:16.358Z,5.10
2023-02-08T17:54:16.349Z,4.70
2023-02-08T17:55:16.331Z,4.40
2023-02-08T17:56:16.311Z,5.10
2023-02-08T17:57:16.279Z,5.20
2023-02-08T17:58:16.288Z,4.80
2023-02-08T17:59:16.286Z,4.70
2023-02-08T18:00:16.325Z,5.10
2023-02-08T18:01:16.269Z,5.00
2023-02-08T18:02:16.218Z,4.50
2023-02-08T18:03:16.290Z,5.10
2023-02-08T18:04:16.208Z,4.70
2023-02-08T18:05:16.207Z,5.00
2023-02-08T18:06:16.182Z,4.50
2023-02-08T18:07:16.187Z,4.80
2023-02-08T18:08:16.273Z,4.80
2023-02-08T18:09:16.160Z,4.60
2023-02-08T18:10:16.268Z,4.40
2023-02-08T18:11:16.121Z,4.90
2023-02-08T18:12:16.097Z,5.00
2023-02-08T18:13:16.124Z,5.90
2023-02-08T18:14:16.059Z,5.80
2023-02-08T18:15:16.053Z,6.00
2023-02-08T18:16:16.118Z,5.10
2023-02-08T18:17:16.029Z,4.90
2023-02-08T18:18:20.653Z,5.60
2023-02-08T18:19:16.034Z,5.40
2023-02-08T18:20:16.121Z,5.40
2023-02-08T18:21:15.969Z,5.30
2023-02-08T18:22:15.979Z,4.80
2023-02-08T18:23:15.953Z,5.10
2023-02-08T18:24:15.951Z,4.90
2023-02-08T18:25:15.987Z,4.70
2023-02-08T18:26:15.945Z,4.90
2023-02-08T18:27:15.902Z,5.40
2023-02-08T18:28:15.913Z,5.00
2023-02-08T18:29:15.871Z,4.90
2023-02-08T18:30:15.854Z,5.20
2023-02-08T18:31:15.937Z,4.90
2023-02-08T18:32:15.926Z,5.20
2023-02-08T18:33:15.824Z,4.60
2023-02-08T18:34:15.837Z,4.80
2023-02-08T18:35:15.799Z,5.30
2023-02-08T18:36:15.788Z,4.90
2023-02-08T18:37:15.773Z,4.40
2023-02-08T18:38:15.776Z,4.10
2023-02-08T18:39:15.747Z,4.80
2023-02-08T18:40:15.751Z,4.30
2023-02-08T18:41:15.726Z,4.50
2023-02-08T18:42:15.708Z,4.10
2023-02-08T18:43:15.722Z,4.60
2023-02-08T18:44:15.678Z,3.90
2023-02-08T18:45:15.658Z,4.10
2023-02-08T18:46:15.777Z,4.00
2023-02-08T18:47:15.650Z,4.60
2023-02-08T18:48:15.626Z,3.50
2023-02-08T18:49:15.651Z,3.60
2023-02-08T18:50:15.598Z,3.60
2023-02-08T18:51:15.601Z,3.70
2023-02-08T18:52:15.573Z,3.50
2023-02-08T18:53:15.557Z,3.60
2023-02-08T18:54:15.546Z,3.80
2023-02-08T18:55:15.561Z,3.50
2023-02-08T18:56:15.519Z,3.90
2023-02-08T18:57:15.519Z,3.50
2023-02-08T18:58:15.483Z,3.90
2023-02-08T18:59:15.478Z,4.80
2023-02-08T19:00:15.488Z,4.20
2023-02-08T19:01:15.602Z,4.00
2023-02-08T19:02:15.501Z,4.30
2023-02-08T19:03:15.430Z,4.10
2023-02-08T19:04:15.443Z,3.90
2023-02-08T19:05:15.400Z,3.60
2023-02-08T19:06:15.390Z,3.70
2023-02-08T19:07:15.391Z,3.40
2023-02-08T19:08:15.360Z,3.40
2023-02-08T19:09:15.359Z,3.30
2023-02-08T19:10:15.334Z,3.70
2023-02-08T19:11:15.326Z,3.60
2023-02-08T19:12:15.480Z,3.40
2023-02-08T19:13:15.327Z,3.20
2023-02-08T19:14:15.293Z,3.20
2023-02-08T19:15:15.337Z,3.50
2023-02-08T19:16:15.325Z,3.30
2023-02-08T19:17:15.250Z,3.50
2023-02-08T19:18:15.226Z,3.60
2023-02-08T19:19:15.225Z,3.70
2023-02-08T19:20:15.216Z,3.40
2023-02-08T19:21:15.209Z,3.30
2023-02-08T19:22:15.194Z,3.60
2023-02-08T19:23:15.190Z,3.50
2023-02-08T19:24:15.531Z,3.50
2023-02-08T19:25:15.177Z,3.50
2023-02-08T19:26:15.137Z,3.50
2023-02-08T19:27:15.117Z,3.80
2023-02-08T19:28:15.146Z,4.20
2023-02-08T19:29:15.108Z,4.40
2023-02-08T19:30:15.085Z,4.00
2023-02-08T19:31:15.208Z,4.20
2023-02-08T19:32:15.129Z,3.80
2023-02-08T19:33:15.070Z,4.10
2023-02-08T19:34:15.016Z,3.80
2023-02-08T19:35:15.033Z,4.20
2023-02-08T19:36:15.003Z,4.20
2023-02-08T19:37:15.004Z,4.10
2023-02-08T19:38:14.971Z,3.60
2023-02-08T19:39:14.957Z,4.00
2023-02-08T19:40:14.977Z,3.60
2023-02-08T19:41:14.961Z,3.60
2023-02-08T19:42:14.922Z,3.70
2023-02-08T19:43:14.922Z,3.70
2023-02-08T19:44:14.945Z,3.40
2023-02-08T19:45:14.909Z,3.30
2023-02-08T19:46:14.894Z,3.80
2023-02-08T19:47:14.854Z,4.00
2023-02-08T19:48:14.848Z,3.70
2023-02-08T19:49:14.835Z,3.70
2023-02-08T19:50:14.834Z,3.70
2023-02-08T19:51:14.818Z,3.20
2023-02-08T19:52:14.792Z,3.50
2023-02-08T19:53:14.787Z,3.90
2023-02-08T19:54:14.812Z,3.50
2023-02-08T19:55:14.765Z,3.80
2023-02-08T19:56:14.793Z,3.50
2023-02-08T19:57:14.752Z,3.80
2023-02-08T19:58:14.720Z,3.80
2023-02-08T19:59:14.711Z,3.30
2023-02-08T20:00:23.304Z,3.70
2023-02-08T20:01:15.738Z,3.50
2023-02-08T20:02:14.715Z,3.30
2023-02-08T20:03:21.394Z,3.70
2023-02-08T20:04:15.659Z,3.40
2023-02-08T20:05:14.657Z,3.80
2023-02-08T20:06:14.637Z,3.50
2023-02-08T20:07:14.625Z,3.90
2023-02-08T20:08:14.629Z,4.10
2023-02-08T20:09:14.604Z,3.80
2023-02-08T20:10:14.571Z,3.50
2023-02-08T20:11:14.576Z,3.50
2023-02-08T20:12:14.550Z,3.80
2023-02-08T20:13:14.538Z,3.70
2023-02-08T20:14:14.523Z,3.50
2023-02-08T20:15:14.510Z,4.00
2023-02-08T20:16:14.511Z,3.50
2023-02-08T20:17:14.485Z,3.80
2023-02-08T20:18:14.458Z,3.60
2023-02-08T20:19:14.479Z,3.80
2023-02-08T20:20:14.449Z,3.60
2023-02-08T20:21:14.427Z,3.80
2023-02-08T20:22:14.410Z,3.50
2023-02-08T20:23:22.533Z,3.30
2023-02-08T20:24:15.408Z,3.70
2023-02-08T20:25:14.389Z,4.00
2023-02-08T20:26:14.373Z,3.90
2023-02-08T20:27:14.358Z,4.00
2023-02-08T20:28:14.408Z,4.00
2023-02-08T20:29:14.333Z,3.80
2023-02-08T20:30:14.337Z,4.00
2023-02-08T20:31:14.385Z,3.70
2023-02-08T20:32:14.344Z,3.70
2023-02-08T20:33:15.766Z,4.40
2023-02-08T20:34:14.258Z,3.60
2023-02-08T20:35:14.244Z,3.90
2023-02-08T20:36:14.258Z,4.00
2023-02-08T20:37:14.238Z,4.00
2023-02-08T20:38:14.209Z,4.40
2023-02-08T20:39:14.206Z,4.00
2023-02-08T20:40:14.206Z,3.70
2023-02-08T20:41:14.193Z,3.90
2023-02-08T20:42:14.156Z,3.80
2023-02-08T20:43:14.143Z,3.80
2023-02-08T20:44:14.213Z,3.80
2023-02-08T20:45:15.380Z,4.40
2023-02-08T20:46:14.218Z,3.90
2023-02-08T20:47:14.178Z,4.20
2023-02-08T20:48:14.064Z,4.20
2023-02-08T20:49:14.089Z,3.90
2023-02-08T20:50:19.070Z,3.80
2023-02-08T20:51:15.042Z,4.60
2023-02-08T20:52:14.033Z,4.10
2023-02-08T20:53:14.096Z,4.00
2023-02-08T20:54:14.042Z,4.20
2023-02-08T20:55:14.039Z,4.00
2023-02-08T20:56:13.993Z,4.50
2023-02-08T20:57:13.993Z,4.60
2023-02-08T20:58:14.032Z,5.50
2023-02-08T20:59:13.952Z,5.20
2023-02-08T21:00:13.982Z,4.60
2023-02-08T21:01:13.953Z,4.60
2023-02-08T21:02:14.024Z,4.90
2023-02-08T21:03:13.911Z,4.70
2023-02-08T21:04:13.922Z,4.30
2023-02-08T21:05:13.873Z,5.30
2023-02-08T21:06:13.847Z,4.70
2023-02-08T21:07:13.862Z,4.20
2023-02-08T21:08:13.849Z,4.80
2023-02-08T21:09:13.825Z,5.10
2023-02-08T21:10:13.819Z,4.70
2023-02-08T21:11:13.826Z,4.70
2023-02-08T21:12:13.843Z,4.30
2023-02-08T21:13:13.763Z,4.50
2023-02-08T21:14:13.746Z,4.40
2023-02-08T21:15:13.820Z,4.70
2023-02-08T21:16:13.837Z,5.10
2023-02-08T21:17:13.758Z,4.80
2023-02-08T21:18:13.729Z,5.50
2023-02-08T21:19:13.708Z,4.90
2023-02-08T21:20:13.680Z,4.80
2023-02-08T21:21:13.661Z,5.40
2023-02-08T21:22:13.682Z,5.10
2023-02-08T21:23:13.702Z,5.30
2023-02-08T21:24:13.628Z,5.10
2023-02-08T21:25:13.592Z,5.30
2023-02-08T21:26:13.616Z,5.10
2023-02-08T21:27:13.595Z,5.20
2023-02-08T21:28:13.809Z,5.40
2023-02-08T21:29:13.574Z,5.70
2023-02-08T21:30:13.542Z,5.10
2023-02-08T21:31:13.603Z,5.10
2023-02-08T21:32:13.520Z,4.90
2023-02-08T21:33:13.512Z,5.60
2023-02-08T21:34:13.521Z,5.20
2023-02-08T21:35:13.486Z,5.60
2023-02-08T21:36:13.477Z,5.60
2023-02-08T21:37:13.448Z,5.60
2023-02-08T21:38:13.429Z,6.00
2023-02-08T21:39:13.623Z,5.50
2023-02-08T21:40:13.442Z,5.40
2023-02-08T21:41:13.483Z,5.50
2023-02-08T21:42:13.417Z,5.60
2023-02-08T21:43:13.394Z,5.70
2023-02-08T21:44:13.405Z,6.10
2023-02-08T21:45:13.420Z,5.80
2023-02-08T21:46:13.398Z,5.40
2023-02-08T21:47:13.530Z,5.00
2023-02-08T21:48:13.351Z,5.50
2023-02-08T21:49:13.311Z,5.40
2023-02-08T21:50:13.311Z,5.50
2023-02-08T21:51:13.307Z,5.50
2023-02-08T21:52:13.261Z,5.50
2023-02-08T21:53:13.245Z,5.90
2023-02-08T21:54:13.248Z,5.30
2023-02-08T21:55:13.223Z,5.40
2023-02-08T21:56:13.226Z,5.40
2023-02-08T21:57:13.206Z,5.40
2023-02-08T21:58:13.190Z,5.60
2023-02-08T21:59:13.191Z,5.90
2023-02-08T22:00:13.171Z,6.00
2023-02-08T22:01:13.166Z,5.70
2023-02-08T22:02:13.164Z,6.00
2023-02-08T22:03:13.147Z,5.80
2023-02-08T22:04:13.094Z,5.40
2023-02-08T22:05:13.088Z,5.50
2023-02-08T22:06:13.137Z,5.60
2023-02-08T22:07:13.065Z,5.60
2023-02-08T22:08:21.748Z,5.40
2023-02-08T22:09:13.038Z,5.20
2023-02-08T22:10:13.046Z,5.50
2023-02-08T22:11:13.017Z,5.60
2023-02-08T22:12:13.004Z,5.80
2023-02-08T22:13:13.013Z,5.40
2023-02-08T22:14:13.010Z,5.70
2023-02-08T22:15:13.062Z,5.60
2023-02-08T22:16:12.980Z,5.40
2023-02-08T22:17:12.952Z,5.50
2023-02-08T22:18:12.918Z,5.50
2023-02-08T22:19:12.946Z,5.80
2023-02-08T22:20:12.948Z,6.10
2023-02-08T22:21:12.909Z,5.80
2023-02-08T22:22:12.884Z,5.60
2023-02-08T22:23:12.916Z,5.30
2023-02-08T22:24:20.622Z,5.50
2023-02-08T22:25:12.860Z,6.00
2023-02-08T22:26:12.838Z,5.40
2023-02-08T22:27:12.870Z,5.50
2023-02-08T22:28:12.851Z,5.60
2023-02-08T22:29:12.805Z,5.10
2023-02-08T22:30:12.781Z,5.30
2023-02-08T22:31:12.863Z,5.30
2023-02-08T22:32:12.815Z,5.20
2023-02-08T22:33:12.780Z,5.30
2023-02-08T22:34:12.745Z,5.10
2023-02-08T22:35:12.748Z,5.40
2023-02-08T22:36:12.717Z,5.20
2023-02-08T22:37:12.715Z,5.20
2023-02-08T22:38:12.751Z,5.20
2023-02-08T22:39:12.665Z,5.10
2023-02-08T22:40:12.659Z,5.50
2023-02-08T22:41:12.648Z,5.30
2023-02-08T22:42:12.653Z,5.80
2023-02-08T22:43:12.646Z,5.40
2023-02-08T22:44:12.623Z,5.10
2023-02-08T22:45:12.617Z,5.40
2023-02-08T22:46:12.652Z,5.40
2023-02-08T22:47:12.596Z,5.50
2023-02-08T22:48:12.567Z,5.20
2023-02-08T22:49:12.574Z,5.20
2023-02-08T22:50:12.552Z,5.60
2023-02-08T22:51:12.525Z,5.20
2023-02-08T22:52:12.505Z,5.70
2023-02-08T22:53:12.510Z,5.50
2023-02-08T22:54:12.507Z,5.80
2023-02-08T22:55:12.496Z,5.40
2023-02-08T22:56:12.461Z,5.20
2023-02-08T22:57:12.471Z,5.50
2023-02-08T22:58:12.470Z,5.40
